sensor_id;sensor_type;location;lat;lon;timestamp;P1;durP1;ratioP1;P2;durP2;ratioP2
20525;SDS011;10421;49.142;9.232;2022-09-12T00:01:02;7.50;;;4.37;;
20525;SDS011;10421;49.142;9.232;2022-09-12T00:03:30;5.57;;;4.40;;
20525;SDS011;10421;49.142;9.232;2022-09-12T00:05:57;6.27;;;4.73;;
20525;SDS011;10421;49.142;9.232;2022-09-12T00:08:25;6.50;;;4.53;;
20525;SDS011;10421;49.142;9.232;2022-09-12T00:10:52;6.00;;;5.10;;
20525;SDS011;10421;49.142;9.232;2022-09-12T00:13:19;10.27;;;5.37;;
20525;SDS011;10421;49.142;9.232;2022-09-12T00:15:45;5.37;;;4.10;;
20525;SDS011;10421;49.142;9.232;2022-09-12T00:18:13;8.53;;;4.90;;
20525;SDS011;10421;49.142;9.232;2022-09-12T00:20:41;6.40;;;4.60;;
20525;SDS011;10421;49.142;9.232;2022-09-12T00:23:08;5.97;;;5.00;;
20525;SDS011;10421;49.142;9.232;2022-09-12T00:25:40;6.97;;;5.00;;
20525;SDS011;10421;49.142;9.232;2022-09-12T00:28:08;8.20;;;4.77;;
20525;SDS011;10421;49.142;9.232;2022-09-12T00:30:38;9.13;;;4.97;;
20525;SDS011;10421;49.142;9.232;2022-09-12T00:33:06;7.77;;;5.17;;
20525;SDS011;10421;49.142;9.232;2022-09-12T00:35:33;5.63;;;4.70;;
20525;SDS011;10421;49.142;9.232;2022-09-12T00:37:59;7.17;;;4.93;;
20525;SDS011;10421;49.142;9.232;2022-09-12T00:40:26;6.67;;;4.73;;
20525;SDS011;10421;49.142;9.232;2022-09-12T00:42:54;6.07;;;4.90;;
20525;SDS011;10421;49.142;9.232;2022-09-12T00:45:22;6.43;;;5.17;;
20525;SDS011;10421;49.142;9.232;2022-09-12T00:47:52;6.87;;;5.50;;
20525;SDS011;10421;49.142;9.232;2022-09-12T00:50:19;8.20;;;5.30;;
20525;SDS011;10421;49.142;9.232;2022-09-12T00:52:47;8.37;;;4.97;;
20525;SDS011;10421;49.142;9.232;2022-09-12T00:55:18;6.50;;;5.30;;
20525;SDS011;10421;49.142;9.232;2022-09-12T00:57:49;8.80;;;5.20;;
20525;SDS011;10421;49.142;9.232;2022-09-12T01:00:20;9.10;;;6.67;;
20525;SDS011;10421;49.142;9.232;2022-09-12T01:02:49;14.80;;;9.80;;
20525;SDS011;10421;49.142;9.232;2022-09-12T01:05:19;12.63;;;8.27;;
20525;SDS011;10421;49.142;9.232;2022-09-12T01:07:47;28.80;;;19.17;;
20525;SDS011;10421;49.142;9.232;2022-09-12T01:10:15;17.37;;;11.63;;
20525;SDS011;10421;49.142;9.232;2022-09-12T01:12:44;10.97;;;6.53;;
20525;SDS011;10421;49.142;9.232;2022-09-12T01:15:11;7.13;;;5.57;;
20525;SDS011;10421;49.142;9.232;2022-09-12T01:17:41;18.20;;;10.63;;
20525;SDS011;10421;49.142;9.232;2022-09-12T01:20:34;14.03;;;7.97;;
20525;SDS011;10421;49.142;9.232;2022-09-12T01:23:21;9.60;;;6.47;;
20525;SDS011;10421;49.142;9.232;2022-09-12T01:26:14;9.20;;;5.47;;
20525;SDS011;10421;49.142;9.232;2022-09-12T01:29:09;6.73;;;5.10;;
20525;SDS011;10421;49.142;9.232;2022-09-12T01:31:49;7.83;;;5.47;;
20525;SDS011;10421;49.142;9.232;2022-09-12T01:34:23;7.50;;;4.87;;
20525;SDS011;10421;49.142;9.232;2022-09-12T01:36:56;7.90;;;5.20;;
20525;SDS011;10421;49.142;9.232;2022-09-12T01:39:29;6.53;;;5.00;;
20525;SDS011;10421;49.142;9.232;2022-09-12T01:42:07;6.27;;;4.93;;
20525;SDS011;10421;49.142;9.232;2022-09-12T01:44:45;7.73;;;5.13;;
20525;SDS011;10421;49.142;9.232;2022-09-12T01:47:17;6.83;;;4.80;;
20525;SDS011;10421;49.142;9.232;2022-09-12T01:49:49;7.03;;;5.03;;
20525;SDS011;10421;49.142;9.232;2022-09-12T01:52:21;6.80;;;5.40;;
20525;SDS011;10421;49.142;9.232;2022-09-12T01:54:53;8.40;;;4.90;;
20525;SDS011;10421;49.142;9.232;2022-09-12T01:57:26;7.50;;;5.13;;
20525;SDS011;10421;49.142;9.232;2022-09-12T01:59:57;4.63;;;4.10;;
20525;SDS011;10421;49.142;9.232;2022-09-12T02:02:31;7.70;;;5.43;;
20525;SDS011;10421;49.142;9.232;2022-09-12T02:05:02;7.10;;;4.87;;
20525;SDS011;10421;49.142;9.232;2022-09-12T02:07:32;9.37;;;4.90;;
20525;SDS011;10421;49.142;9.232;2022-09-12T02:10:04;7.43;;;6.30;;
20525;SDS011;10421;49.142;9.232;2022-09-12T02:12:38;8.20;;;5.00;;
20525;SDS011;10421;49.142;9.232;2022-09-12T02:15:09;8.20;;;5.60;;
20525;SDS011;10421;49.142;9.232;2022-09-12T02:17:41;8.20;;;5.43;;
20525;SDS011;10421;49.142;9.232;2022-09-12T02:20:11;7.47;;;5.20;;
20525;SDS011;10421;49.142;9.232;2022-09-12T02:22:41;9.30;;;5.70;;
20525;SDS011;10421;49.142;9.232;2022-09-12T02:25:10;6.50;;;5.17;;
20525;SDS011;10421;49.142;9.232;2022-09-12T02:27:40;7.40;;;5.33;;
20525;SDS011;10421;49.142;9.232;2022-09-12T02:30:11;6.70;;;5.10;;
20525;SDS011;10421;49.142;9.232;2022-09-12T02:32:42;7.87;;;5.90;;
20525;SDS011;10421;49.142;9.232;2022-09-12T02:35:16;8.40;;;5.17;;
20525;SDS011;10421;49.142;9.232;2022-09-12T02:37:51;7.70;;;5.50;;
20525;SDS011;10421;49.142;9.232;2022-09-12T02:40:24;7.90;;;5.40;;
20525;SDS011;10421;49.142;9.232;2022-09-12T02:42:51;7.13;;;5.27;;
20525;SDS011;10421;49.142;9.232;2022-09-12T02:45:17;7.90;;;5.73;;
20525;SDS011;10421;49.142;9.232;2022-09-12T02:47:48;6.80;;;5.20;;
20525;SDS011;10421;49.142;9.232;2022-09-12T02:50:20;7.50;;;5.67;;
20525;SDS011;10421;49.142;9.232;2022-09-12T02:52:47;7.20;;;5.00;;
20525;SDS011;10421;49.142;9.232;2022-09-12T02:55:17;7.00;;;4.83;;
20525;SDS011;10421;49.142;9.232;2022-09-12T02:57:44;8.50;;;4.97;;
20525;SDS011;10421;49.142;9.232;2022-09-12T03:00:11;7.93;;;5.13;;
20525;SDS011;10421;49.142;9.232;2022-09-12T03:02:45;8.23;;;6.13;;
20525;SDS011;10421;49.142;9.232;2022-09-12T03:05:32;7.70;;;5.53;;
20525;SDS011;10421;49.142;9.232;2022-09-12T03:11:18;7.00;;;5.17;;
20525;SDS011;10421;49.142;9.232;2022-09-12T03:13:56;7.20;;;5.53;;
20525;SDS011;10421;49.142;9.232;2022-09-12T03:16:33;6.57;;;5.43;;
20525;SDS011;10421;49.142;9.232;2022-09-12T03:19:12;8.57;;;5.37;;
20525;SDS011;10421;49.142;9.232;2022-09-12T03:21:47;6.57;;;5.27;;
20525;SDS011;10421;49.142;9.232;2022-09-12T03:24:24;6.30;;;4.97;;
20525;SDS011;10421;49.142;9.232;2022-09-12T03:26:58;7.20;;;5.00;;
20525;SDS011;10421;49.142;9.232;2022-09-12T03:29:34;7.80;;;5.73;;
20525;SDS011;10421;49.142;9.232;2022-09-12T03:32:02;8.77;;;5.20;;
20525;SDS011;10421;49.142;9.232;2022-09-12T03:34:30;7.13;;;5.60;;
20525;SDS011;10421;49.142;9.232;2022-09-12T03:36:57;6.97;;;4.87;;
20525;SDS011;10421;49.142;9.232;2022-09-12T03:39:24;9.03;;;5.60;;
20525;SDS011;10421;49.142;9.232;2022-09-12T03:41:51;8.10;;;5.70;;
20525;SDS011;10421;49.142;9.232;2022-09-12T03:44:18;8.23;;;5.70;;
20525;SDS011;10421;49.142;9.232;2022-09-12T03:46:45;7.60;;;5.10;;
20525;SDS011;10421;49.142;9.232;2022-09-12T03:49:12;8.60;;;5.30;;
20525;SDS011;10421;49.142;9.232;2022-09-12T03:51:40;9.43;;;6.17;;
20525;SDS011;10421;49.142;9.232;2022-09-12T03:54:08;8.30;;;5.33;;
20525;SDS011;10421;49.142;9.232;2022-09-12T03:56:35;7.47;;;5.20;;
20525;SDS011;10421;49.142;9.232;2022-09-12T03:59:03;7.97;;;5.73;;
20525;SDS011;10421;49.142;9.232;2022-09-12T04:01:30;9.60;;;5.80;;
20525;SDS011;10421;49.142;9.232;2022-09-12T04:03:57;8.00;;;5.83;;
20525;SDS011;10421;49.142;9.232;2022-09-12T04:06:24;6.67;;;4.93;;
20525;SDS011;10421;49.142;9.232;2022-09-12T04:08:52;8.67;;;6.13;;
20525;SDS011;10421;49.142;9.232;2022-09-12T04:11:20;16.00;;;9.60;;
20525;SDS011;10421;49.142;9.232;2022-09-12T04:13:48;34.10;;;17.53;;
20525;SDS011;10421;49.142;9.232;2022-09-12T04:16:15;21.80;;;10.03;;
20525;SDS011;10421;49.142;9.232;2022-09-12T04:18:42;22.33;;;12.80;;
20525;SDS011;10421;49.142;9.232;2022-09-12T04:21:10;25.10;;;13.40;;
20525;SDS011;10421;49.142;9.232;2022-09-12T04:23:38;26.83;;;16.90;;
20525;SDS011;10421;49.142;9.232;2022-09-12T04:26:06;36.53;;;19.10;;
20525;SDS011;10421;49.142;9.232;2022-09-12T04:28:34;37.67;;;22.40;;
20525;SDS011;10421;49.142;9.232;2022-09-12T04:31:02;13.67;;;8.80;;
20525;SDS011;10421;49.142;9.232;2022-09-12T04:33:30;11.07;;;6.60;;
20525;SDS011;10421;49.142;9.232;2022-09-12T04:36:01;8.93;;;6.27;;
20525;SDS011;10421;49.142;9.232;2022-09-12T04:38:29;10.07;;;6.30;;
20525;SDS011;10421;49.142;9.232;2022-09-12T04:40:55;7.67;;;6.33;;
20525;SDS011;10421;49.142;9.232;2022-09-12T04:43:24;8.60;;;6.10;;
20525;SDS011;10421;49.142;9.232;2022-09-12T04:45:50;6.33;;;5.07;;
20525;SDS011;10421;49.142;9.232;2022-09-12T04:48:17;8.90;;;6.23;;
20525;SDS011;10421;49.142;9.232;2022-09-12T04:50:44;7.40;;;5.50;;
20525;SDS011;10421;49.142;9.232;2022-09-12T04:53:10;10.13;;;5.90;;
20525;SDS011;10421;49.142;9.232;2022-09-12T04:55:37;9.57;;;6.70;;
20525;SDS011;10421;49.142;9.232;2022-09-12T04:58:04;7.37;;;5.70;;
20525;SDS011;10421;49.142;9.232;2022-09-12T05:00:32;9.43;;;6.47;;
20525;SDS011;10421;49.142;9.232;2022-09-12T05:02:59;7.80;;;6.37;;
20525;SDS011;10421;49.142;9.232;2022-09-12T05:05:25;9.00;;;6.50;;
20525;SDS011;10421;49.142;9.232;2022-09-12T05:07:52;9.37;;;6.10;;
20525;SDS011;10421;49.142;9.232;2022-09-12T05:10:19;10.03;;;6.50;;
20525;SDS011;10421;49.142;9.232;2022-09-12T05:12:47;9.57;;;6.57;;
20525;SDS011;10421;49.142;9.232;2022-09-12T05:15:14;7.37;;;6.17;;
20525;SDS011;10421;49.142;9.232;2022-09-12T05:17:43;7.30;;;5.40;;
20525;SDS011;10421;49.142;9.232;2022-09-12T05:20:10;7.17;;;5.63;;
20525;SDS011;10421;49.142;9.232;2022-09-12T05:22:37;7.83;;;5.33;;
20525;SDS011;10421;49.142;9.232;2022-09-12T05:25:04;13.20;;;8.40;;
20525;SDS011;10421;49.142;9.232;2022-09-12T05:27:32;16.50;;;10.63;;
20525;SDS011;10421;49.142;9.232;2022-09-12T05:29:58;13.97;;;8.00;;
20525;SDS011;10421;49.142;9.232;2022-09-12T05:32:25;9.10;;;6.47;;
20525;SDS011;10421;49.142;9.232;2022-09-12T05:34:58;11.53;;;6.70;;
20525;SDS011;10421;49.142;9.232;2022-09-12T05:37:25;9.37;;;6.57;;
20525;SDS011;10421;49.142;9.232;2022-09-12T05:39:52;7.53;;;5.77;;
20525;SDS011;10421;49.142;9.232;2022-09-12T05:42:19;12.23;;;7.50;;
20525;SDS011;10421;49.142;9.232;2022-09-12T05:44:46;10.30;;;6.73;;
20525;SDS011;10421;49.142;9.232;2022-09-12T05:47:13;11.07;;;7.47;;
20525;SDS011;10421;49.142;9.232;2022-09-12T05:49:41;17.40;;;7.47;;
20525;SDS011;10421;49.142;9.232;2022-09-12T05:52:10;11.50;;;6.43;;
20525;SDS011;10421;49.142;9.232;2022-09-12T05:54:37;14.93;;;7.10;;
20525;SDS011;10421;49.142;9.232;2022-09-12T05:57:05;13.10;;;7.37;;
20525;SDS011;10421;49.142;9.232;2022-09-12T05:59:32;12.03;;;7.20;;
20525;SDS011;10421;49.142;9.232;2022-09-12T06:01:58;11.50;;;7.10;;
20525;SDS011;10421;49.142;9.232;2022-09-12T06:04:28;11.50;;;7.00;;
20525;SDS011;10421;49.142;9.232;2022-09-12T06:06:55;11.60;;;6.80;;
20525;SDS011;10421;49.142;9.232;2022-09-12T06:09:23;13.93;;;8.07;;
20525;SDS011;10421;49.142;9.232;2022-09-12T06:11:51;10.70;;;6.63;;
20525;SDS011;10421;49.142;9.232;2022-09-12T06:14:17;10.30;;;6.97;;
20525;SDS011;10421;49.142;9.232;2022-09-12T06:16:44;17.83;;;8.43;;
20525;SDS011;10421;49.142;9.232;2022-09-12T06:19:13;13.17;;;8.17;;
20525;SDS011;10421;49.142;9.232;2022-09-12T06:21:41;13.83;;;8.83;;
20525;SDS011;10421;49.142;9.232;2022-09-12T06:24:08;11.87;;;6.80;;
20525;SDS011;10421;49.142;9.232;2022-09-12T06:26:37;11.83;;;7.07;;
20525;SDS011;10421;49.142;9.232;2022-09-12T06:29:04;12.40;;;8.20;;
20525;SDS011;10421;49.142;9.232;2022-09-12T06:31:32;13.03;;;7.47;;
20525;SDS011;10421;49.142;9.232;2022-09-12T06:34:00;13.50;;;7.73;;
20525;SDS011;10421;49.142;9.232;2022-09-12T06:36:29;13.30;;;8.07;;
20525;SDS011;10421;49.142;9.232;2022-09-12T06:38:58;10.33;;;7.80;;
20525;SDS011;10421;49.142;9.232;2022-09-12T06:41:26;12.30;;;7.87;;
20525;SDS011;10421;49.142;9.232;2022-09-12T06:43:56;11.50;;;7.17;;
20525;SDS011;10421;49.142;9.232;2022-09-12T06:46:24;12.73;;;8.33;;
20525;SDS011;10421;49.142;9.232;2022-09-12T06:48:51;12.33;;;7.50;;
20525;SDS011;10421;49.142;9.232;2022-09-12T06:51:18;12.90;;;8.33;;
20525;SDS011;10421;49.142;9.232;2022-09-12T06:53:46;12.63;;;8.10;;
20525;SDS011;10421;49.142;9.232;2022-09-12T06:56:13;9.97;;;7.47;;
20525;SDS011;10421;49.142;9.232;2022-09-12T06:58:42;14.47;;;7.53;;
20525;SDS011;10421;49.142;9.232;2022-09-12T07:01:11;15.23;;;8.73;;
20525;SDS011;10421;49.142;9.232;2022-09-12T07:03:39;11.87;;;7.87;;
20525;SDS011;10421;49.142;9.232;2022-09-12T07:06:06;10.77;;;7.03;;
20525;SDS011;10421;49.142;9.232;2022-09-12T07:08:35;13.20;;;9.03;;
20525;SDS011;10421;49.142;9.232;2022-09-12T07:11:07;11.60;;;7.70;;
20525;SDS011;10421;49.142;9.232;2022-09-12T07:13:36;11.60;;;7.90;;
20525;SDS011;10421;49.142;9.232;2022-09-12T07:16:03;15.03;;;8.07;;
20525;SDS011;10421;49.142;9.232;2022-09-12T07:18:32;12.50;;;7.37;;
20525;SDS011;10421;49.142;9.232;2022-09-12T07:20:59;12.10;;;8.70;;
20525;SDS011;10421;49.142;9.232;2022-09-12T07:23:26;11.67;;;8.20;;
20525;SDS011;10421;49.142;9.232;2022-09-12T07:25:54;14.77;;;8.37;;
20525;SDS011;10421;49.142;9.232;2022-09-12T07:28:21;10.50;;;7.97;;
20525;SDS011;10421;49.142;9.232;2022-09-12T07:30:48;16.20;;;9.73;;
20525;SDS011;10421;49.142;9.232;2022-09-12T07:33:17;17.90;;;8.60;;
20525;SDS011;10421;49.142;9.232;2022-09-12T07:35:46;14.43;;;9.67;;
20525;SDS011;10421;49.142;9.232;2022-09-12T07:38:13;17.53;;;9.97;;
20525;SDS011;10421;49.142;9.232;2022-09-12T07:40:43;13.87;;;9.10;;
20525;SDS011;10421;49.142;9.232;2022-09-12T07:43:10;14.37;;;9.07;;
20525;SDS011;10421;49.142;9.232;2022-09-12T07:45:37;15.00;;;9.20;;
20525;SDS011;10421;49.142;9.232;2022-09-12T07:48:06;15.47;;;9.03;;
20525;SDS011;10421;49.142;9.232;2022-09-12T07:50:33;15.20;;;8.93;;
20525;SDS011;10421;49.142;9.232;2022-09-12T07:53:02;16.70;;;9.77;;
20525;SDS011;10421;49.142;9.232;2022-09-12T07:55:29;12.50;;;8.63;;
20525;SDS011;10421;49.142;9.232;2022-09-12T07:57:56;16.17;;;9.73;;
20525;SDS011;10421;49.142;9.232;2022-09-12T08:00:23;16.10;;;9.70;;
20525;SDS011;10421;49.142;9.232;2022-09-12T08:02:50;12.87;;;8.57;;
20525;SDS011;10421;49.142;9.232;2022-09-12T08:05:18;17.47;;;9.30;;
20525;SDS011;10421;49.142;9.232;2022-09-12T08:07:45;14.73;;;9.53;;
20525;SDS011;10421;49.142;9.232;2022-09-12T08:10:13;12.80;;;8.50;;
20525;SDS011;10421;49.142;9.232;2022-09-12T08:12:40;14.10;;;9.63;;
20525;SDS011;10421;49.142;9.232;2022-09-12T08:15:07;15.13;;;8.57;;
20525;SDS011;10421;49.142;9.232;2022-09-12T08:17:34;15.70;;;8.70;;
20525;SDS011;10421;49.142;9.232;2022-09-12T08:20:01;13.77;;;9.03;;
20525;SDS011;10421;49.142;9.232;2022-09-12T08:22:29;14.50;;;8.17;;
20525;SDS011;10421;49.142;9.232;2022-09-12T08:24:56;11.97;;;8.17;;
20525;SDS011;10421;49.142;9.232;2022-09-12T08:27:24;11.03;;;8.33;;
20525;SDS011;10421;49.142;9.232;2022-09-12T08:29:51;11.47;;;8.10;;
20525;SDS011;10421;49.142;9.232;2022-09-12T08:32:19;12.10;;;8.20;;
20525;SDS011;10421;49.142;9.232;2022-09-12T08:34:46;15.50;;;9.33;;
20525;SDS011;10421;49.142;9.232;2022-09-12T08:37:13;11.57;;;8.10;;
20525;SDS011;10421;49.142;9.232;2022-09-12T08:39:39;12.10;;;7.90;;
20525;SDS011;10421;49.142;9.232;2022-09-12T08:42:08;12.80;;;8.40;;
20525;SDS011;10421;49.142;9.232;2022-09-12T08:44:51;12.53;;;7.70;;
20525;SDS011;10421;49.142;9.232;2022-09-12T08:47:29;12.30;;;7.03;;
20525;SDS011;10421;49.142;9.232;2022-09-12T08:50:00;10.50;;;7.67;;
20525;SDS011;10421;49.142;9.232;2022-09-12T08:52:33;10.67;;;6.83;;
20525;SDS011;10421;49.142;9.232;2022-09-12T08:55:05;12.53;;;7.63;;
20525;SDS011;10421;49.142;9.232;2022-09-12T08:57:38;10.80;;;7.07;;
20525;SDS011;10421;49.142;9.232;2022-09-12T09:00:11;10.60;;;7.20;;
20525;SDS011;10421;49.142;9.232;2022-09-12T09:02:44;11.87;;;6.80;;
20525;SDS011;10421;49.142;9.232;2022-09-12T09:05:35;12.70;;;7.90;;
20525;SDS011;10421;49.142;9.232;2022-09-12T09:08:14;8.40;;;6.57;;
20525;SDS011;10421;49.142;9.232;2022-09-12T09:11:12;12.53;;;7.40;;
20525;SDS011;10421;49.142;9.232;2022-09-12T09:13:53;11.50;;;7.60;;
20525;SDS011;10421;49.142;9.232;2022-09-12T09:16:48;10.57;;;7.33;;
20525;SDS011;10421;49.142;9.232;2022-09-12T09:19:17;14.33;;;8.60;;
20525;SDS011;10421;49.142;9.232;2022-09-12T09:21:49;8.07;;;6.07;;
20525;SDS011;10421;49.142;9.232;2022-09-12T09:24:18;12.63;;;6.80;;
20525;SDS011;10421;49.142;9.232;2022-09-12T09:26:50;9.33;;;6.23;;
20525;SDS011;10421;49.142;9.232;2022-09-12T09:29:22;8.93;;;6.57;;
20525;SDS011;10421;49.142;9.232;2022-09-12T09:31:54;10.00;;;6.17;;
20525;SDS011;10421;49.142;9.232;2022-09-12T09:34:25;7.77;;;6.10;;
20525;SDS011;10421;49.142;9.232;2022-09-12T09:36:56;14.43;;;7.37;;
20525;SDS011;10421;49.142;9.232;2022-09-12T09:39:37;9.07;;;6.80;;
20525;SDS011;10421;49.142;9.232;2022-09-12T09:42:15;8.00;;;6.10;;
20525;SDS011;10421;49.142;9.232;2022-09-12T09:44:49;10.20;;;7.33;;
20525;SDS011;10421;49.142;9.232;2022-09-12T09:47:20;10.03;;;7.20;;
20525;SDS011;10421;49.142;9.232;2022-09-12T09:49:47;15.70;;;7.00;;
20525;SDS011;10421;49.142;9.232;2022-09-12T09:52:14;37.37;;;6.83;;
20525;SDS011;10421;49.142;9.232;2022-09-12T09:54:46;9.70;;;7.10;;
20525;SDS011;10421;49.142;9.232;2022-09-12T10:00:19;9.77;;;6.50;;
20525;SDS011;10421;49.142;9.232;2022-09-12T10:03:01;12.57;;;6.90;;
20525;SDS011;10421;49.142;9.232;2022-09-12T10:05:32;8.63;;;7.20;;
20525;SDS011;10421;49.142;9.232;2022-09-12T10:08:02;9.57;;;6.60;;
20525;SDS011;10421;49.142;9.232;2022-09-12T10:10:31;7.77;;;6.00;;
20525;SDS011;10421;49.142;9.232;2022-09-12T10:13:08;15.07;;;11.13;;
20525;SDS011;10421;49.142;9.232;2022-09-12T10:15:56;8.57;;;7.67;;
20525;SDS011;10421;49.142;9.232;2022-09-12T10:18:33;9.77;;;6.27;;
20525;SDS011;10421;49.142;9.232;2022-09-12T10:21:05;7.40;;;5.53;;
20525;SDS011;10421;49.142;9.232;2022-09-12T10:23:40;10.20;;;7.33;;
20525;SDS011;10421;49.142;9.232;2022-09-12T10:26:08;8.90;;;5.90;;
20525;SDS011;10421;49.142;9.232;2022-09-12T10:28:37;6.43;;;5.53;;
20525;SDS011;10421;49.142;9.232;2022-09-12T10:31:07;5.60;;;4.97;;
20525;SDS011;10421;49.142;9.232;2022-09-12T10:33:42;6.23;;;5.03;;
20525;SDS011;10421;49.142;9.232;2022-09-12T10:36:11;5.00;;;4.53;;
20525;SDS011;10421;49.142;9.232;2022-09-12T10:38:38;5.90;;;5.30;;
20525;SDS011;10421;49.142;9.232;2022-09-12T10:41:14;4.87;;;4.40;;
20525;SDS011;10421;49.142;9.232;2022-09-12T10:43:44;7.17;;;5.10;;
20525;SDS011;10421;49.142;9.232;2022-09-12T10:46:20;8.27;;;6.00;;
20525;SDS011;10421;49.142;9.232;2022-09-12T10:49:18;8.63;;;5.63;;
20525;SDS011;10421;49.142;9.232;2022-09-12T10:51:48;11.00;;;7.97;;
20525;SDS011;10421;49.142;9.232;2022-09-12T10:54:16;6.70;;;4.83;;
20525;SDS011;10421;49.142;9.232;2022-09-12T10:56:48;5.17;;;4.67;;
20525;SDS011;10421;49.142;9.232;2022-09-12T10:59:36;5.10;;;4.60;;
20525;SDS011;10421;49.142;9.232;2022-09-12T11:02:13;6.80;;;4.77;;
20525;SDS011;10421;49.142;9.232;2022-09-12T11:04:51;5.20;;;4.80;;
20525;SDS011;10421;49.142;9.232;2022-09-12T11:07:34;8.70;;;5.03;;
20525;SDS011;10421;49.142;9.232;2022-09-12T11:10:17;6.53;;;5.60;;
20525;SDS011;10421;49.142;9.232;2022-09-12T11:12:55;5.70;;;5.20;;
20525;SDS011;10421;49.142;9.232;2022-09-12T11:15:34;5.80;;;5.00;;
20525;SDS011;10421;49.142;9.232;2022-09-12T11:18:16;5.13;;;4.63;;
20525;SDS011;10421;49.142;9.232;2022-09-12T11:20:59;4.93;;;4.53;;
20525;SDS011;10421;49.142;9.232;2022-09-12T11:23:46;4.83;;;4.03;;
20525;SDS011;10421;49.142;9.232;2022-09-12T11:26:28;5.50;;;4.83;;
20525;SDS011;10421;49.142;9.232;2022-09-12T11:29:06;5.43;;;4.93;;
20525;SDS011;10421;49.142;9.232;2022-09-12T11:31:51;5.00;;;4.50;;
20525;SDS011;10421;49.142;9.232;2022-09-12T11:34:27;4.87;;;4.37;;
20525;SDS011;10421;49.142;9.232;2022-09-12T11:37:13;4.47;;;4.00;;
20525;SDS011;10421;49.142;9.232;2022-09-12T11:39:53;4.33;;;4.03;;
20525;SDS011;10421;49.142;9.232;2022-09-12T11:42:22;4.50;;;4.10;;
20525;SDS011;10421;49.142;9.232;2022-09-12T11:44:56;4.10;;;3.80;;
20525;SDS011;10421;49.142;9.232;2022-09-12T11:47:28;4.60;;;4.20;;
20525;SDS011;10421;49.142;9.232;2022-09-12T11:49:58;3.97;;;3.67;;
20525;SDS011;10421;49.142;9.232;2022-09-12T11:52:32;3.57;;;3.27;;
20525;SDS011;10421;49.142;9.232;2022-09-12T11:55:03;3.67;;;3.37;;
20525;SDS011;10421;49.142;9.232;2022-09-12T11:57:36;4.47;;;4.07;;
20525;SDS011;10421;49.142;9.232;2022-09-12T12:00:13;3.60;;;3.40;;
20525;SDS011;10421;49.142;9.232;2022-09-12T12:02:47;7.10;;;4.20;;
20525;SDS011;10421;49.142;9.232;2022-09-12T12:05:23;4.20;;;3.80;;
20525;SDS011;10421;49.142;9.232;2022-09-12T12:07:55;4.70;;;4.30;;
20525;SDS011;10421;49.142;9.232;2022-09-12T12:10:25;4.47;;;4.07;;
20525;SDS011;10421;49.142;9.232;2022-09-12T12:12:56;5.33;;;4.63;;
20525;SDS011;10421;49.142;9.232;2022-09-12T12:15:26;4.47;;;4.07;;
20525;SDS011;10421;49.142;9.232;2022-09-12T12:18:01;4.97;;;4.23;;
20525;SDS011;10421;49.142;9.232;2022-09-12T12:20:30;4.53;;;4.13;;
20525;SDS011;10421;49.142;9.232;2022-09-12T12:22:58;6.90;;;4.20;;
20525;SDS011;10421;49.142;9.232;2022-09-12T12:25:36;5.03;;;3.97;;
20525;SDS011;10421;49.142;9.232;2022-09-12T12:28:05;4.27;;;3.87;;
20525;SDS011;10421;49.142;9.232;2022-09-12T12:36:31;4.70;;;4.20;;
20525;SDS011;10421;49.142;9.232;2022-09-12T12:48:48;3.60;;;3.20;;
20525;SDS011;10421;49.142;9.232;2022-09-12T12:54:08;4.60;;;3.23;;
20525;SDS011;10421;49.142;9.232;2022-09-12T12:56:59;10.00;;;3.50;;
20525;SDS011;10421;49.142;9.232;2022-09-12T12:59:27;2.50;;;1.63;;
20525;SDS011;10421;49.142;9.232;2022-09-12T13:01:54;1.67;;;1.57;;
20525;SDS011;10421;49.142;9.232;2022-09-12T13:04:26;2.67;;;2.47;;
20525;SDS011;10421;49.142;9.232;2022-09-12T13:06:56;1.83;;;1.40;;
20525;SDS011;10421;49.142;9.232;2022-09-12T13:09:26;1.60;;;1.50;;
20525;SDS011;10421;49.142;9.232;2022-09-12T13:11:58;2.30;;;2.20;;
20525;SDS011;10421;49.142;9.232;2022-09-12T13:14:33;1.87;;;1.77;;
20525;SDS011;10421;49.142;9.232;2022-09-12T13:17:03;1.87;;;1.60;;
20525;SDS011;10421;49.142;9.232;2022-09-12T13:19:35;1.43;;;1.43;;
20525;SDS011;10421;49.142;9.232;2022-09-12T13:22:03;1.97;;;1.87;;
20525;SDS011;10421;49.142;9.232;2022-09-12T13:24:31;1.63;;;1.53;;
20525;SDS011;10421;49.142;9.232;2022-09-12T13:26:58;1.67;;;1.57;;
20525;SDS011;10421;49.142;9.232;2022-09-12T13:29:26;1.97;;;1.80;;
20525;SDS011;10421;49.142;9.232;2022-09-12T13:31:54;2.90;;;2.70;;
20525;SDS011;10421;49.142;9.232;2022-09-12T13:34:23;1.67;;;1.50;;
20525;SDS011;10421;49.142;9.232;2022-09-12T13:37:00;1.43;;;1.40;;
20525;SDS011;10421;49.142;9.232;2022-09-12T13:39:45;1.80;;;1.70;;
20525;SDS011;10421;49.142;9.232;2022-09-12T13:42:21;1.67;;;1.57;;
20525;SDS011;10421;49.142;9.232;2022-09-12T13:45:10;1.87;;;1.77;;
20525;SDS011;10421;49.142;9.232;2022-09-12T13:47:41;1.50;;;1.40;;
20525;SDS011;10421;49.142;9.232;2022-09-12T13:50:12;1.70;;;1.60;;
20525;SDS011;10421;49.142;9.232;2022-09-12T13:52:46;1.77;;;1.67;;
20525;SDS011;10421;49.142;9.232;2022-09-12T13:55:24;5.70;;;1.63;;
20525;SDS011;10421;49.142;9.232;2022-09-12T13:57:56;1.80;;;1.70;;
20525;SDS011;10421;49.142;9.232;2022-09-12T14:00:24;1.73;;;1.63;;
20525;SDS011;10421;49.142;9.232;2022-09-12T14:02:52;1.60;;;1.50;;
20525;SDS011;10421;49.142;9.232;2022-09-12T14:05:39;1.97;;;1.87;;
20525;SDS011;10421;49.142;9.232;2022-09-12T14:08:10;2.23;;;2.10;;
20525;SDS011;10421;49.142;9.232;2022-09-12T14:10:39;2.50;;;2.30;;
20525;SDS011;10421;49.142;9.232;2022-09-12T14:13:10;2.50;;;2.30;;
20525;SDS011;10421;49.142;9.232;2022-09-12T14:15:38;2.33;;;2.17;;
20525;SDS011;10421;49.142;9.232;2022-09-12T14:18:18;2.60;;;2.43;;
20525;SDS011;10421;49.142;9.232;2022-09-12T14:20:47;2.17;;;2.00;;
20525;SDS011;10421;49.142;9.232;2022-09-12T14:23:18;1.80;;;1.70;;
20525;SDS011;10421;49.142;9.232;2022-09-12T14:25:50;2.10;;;2.00;;
20525;SDS011;10421;49.142;9.232;2022-09-12T14:28:18;4.63;;;3.97;;
20525;SDS011;10421;49.142;9.232;2022-09-12T14:30:56;9.87;;;6.60;;
20525;SDS011;10421;49.142;9.232;2022-09-12T14:33:24;3.67;;;2.70;;
20525;SDS011;10421;49.142;9.232;2022-09-12T14:35:51;1.90;;;1.80;;
20525;SDS011;10421;49.142;9.232;2022-09-12T14:38:36;1.63;;;1.53;;
20525;SDS011;10421;49.142;9.232;2022-09-12T14:41:06;2.00;;;1.90;;
20525;SDS011;10421;49.142;9.232;2022-09-12T14:43:38;2.23;;;2.13;;
20525;SDS011;10421;49.142;9.232;2022-09-12T14:46:13;1.73;;;1.63;;
20525;SDS011;10421;49.142;9.232;2022-09-12T14:48:45;1.50;;;1.40;;
20525;SDS011;10421;49.142;9.232;2022-09-12T14:51:17;1.50;;;1.40;;
20525;SDS011;10421;49.142;9.232;2022-09-12T14:53:48;1.60;;;1.40;;
20525;SDS011;10421;49.142;9.232;2022-09-12T14:56:15;1.83;;;1.73;;
20525;SDS011;10421;49.142;9.232;2022-09-12T14:58:42;1.90;;;1.80;;
20525;SDS011;10421;49.142;9.232;2022-09-12T15:01:23;1.50;;;1.50;;
20525;SDS011;10421;49.142;9.232;2022-09-12T15:03:51;1.70;;;1.60;;
20525;SDS011;10421;49.142;9.232;2022-09-12T15:06:20;1.60;;;1.50;;
20525;SDS011;10421;49.142;9.232;2022-09-12T15:08:51;1.90;;;1.57;;
20525;SDS011;10421;49.142;9.232;2022-09-12T15:11:18;1.60;;;1.50;;
20525;SDS011;10421;49.142;9.232;2022-09-12T15:13:45;1.27;;;1.20;;
20525;SDS011;10421;49.142;9.232;2022-09-12T15:16:12;1.50;;;1.40;;
20525;SDS011;10421;49.142;9.232;2022-09-12T15:18:39;2.33;;;1.90;;
20525;SDS011;10421;49.142;9.232;2022-09-12T15:21:07;2.10;;;1.97;;
20525;SDS011;10421;49.142;9.232;2022-09-12T15:23:39;1.33;;;1.23;;
20525;SDS011;10421;49.142;9.232;2022-09-12T15:26:10;2.90;;;1.60;;
20525;SDS011;10421;49.142;9.232;2022-09-12T15:28:38;1.60;;;1.50;;
20525;SDS011;10421;49.142;9.232;2022-09-12T15:31:06;1.70;;;1.60;;